sensor_id;sensor_type;location;lat;lon;timestamp;pressure;altitude;pressure_sealevel;temperature;humidity
50226;BME280;36113;50.742;6.432;2022-09-09T00:00:53;98016.16;;;14.33;100.00
50226;BME280;36113;50.742;6.432;2022-09-09T00:03:30;98027.41;;;14.33;100.00
50226;BME280;36113;50.742;6.432;2022-09-09T00:06:55;98004.31;;;14.29;100.00
50226;BME280;36113;50.742;6.432;2022-09-09T00:09:00;98005.63;;;14.34;100.00
50226;BME280;36113;50.742;6.432;2022-09-09T00:11:35;98000.75;;;14.30;100.00
50226;BME280;36113;50.742;6.432;2022-09-09T00:14:03;98014.16;;;14.36;100.00
50226;BME280;36113;50.742;6.432;2022-09-09T00:16:36;98001.22;;;14.35;100.00
50226;BME280;36113;50.742;6.432;2022-09-09T00:19:20;97984.38;;;14.16;100.00
50226;BME280;36113;50.742;6.432;2022-09-09T00:22:14;97993.41;;;14.23;100.00
50226;BME280;36113;50.742;6.432;2022-09-09T00:24:49;97978.56;;;14.13;100.00
50226;BME280;36113;50.742;6.432;2022-09-09T00:27:19;97996.63;;;14.27;100.00
50226;BME280;36113;50.742;6.432;2022-09-09T00:32:45;97993.41;;;14.23;100.00
50226;BME280;36113;50.742;6.432;2022-09-09T00:35:16;97999.69;;;14.21;100.00
50226;BME280;36113;50.742;6.432;2022-09-09T00:37:44;98003.13;;;14.21;100.00
50226;BME280;36113;50.742;6.432;2022-09-09T00:40:36;97971.25;;;14.06;100.00
50226;BME280;36113;50.742;6.432;2022-09-09T00:43:26;97999.09;;;14.17;100.00
50226;BME280;36113;50.742;6.432;2022-09-09T00:51:22;97986.41;;;14.13;100.00
50226;BME280;36113;50.742;6.432;2022-09-09T00:53:58;97993.75;;;14.19;100.00
50226;BME280;36113;50.742;6.432;2022-09-09T00:56:41;97992.22;;;14.16;100.00
50226;BME280;36113;50.742;6.432;2022-09-09T01:01:36;97995.66;;;14.17;100.00
50226;BME280;36113;50.742;6.432;2022-09-09T01:04:05;97988.06;;;14.14;100.00
50226;BME280;36113;50.742;6.432;2022-09-09T01:06:36;97983.09;;;14.11;100.00
50226;BME280;36113;50.742;6.432;2022-09-09T01:09:21;97976.34;;;14.08;100.00
50226;BME280;36113;50.742;6.432;2022-09-09T01:11:55;97966.75;;;14.09;100.00
50226;BME280;36113;50.742;6.432;2022-09-09T01:14:30;97993.66;;;14.20;100.00
50226;BME280;36113;50.742;6.432;2022-09-09T01:16:58;97990.94;;;14.22;100.00
50226;BME280;36113;50.742;6.432;2022-09-09T01:19:57;97952.63;;;14.00;100.00
50226;BME280;36113;50.742;6.432;2022-09-09T01:27:31;97987.13;;;14.26;100.00
50226;BME280;36113;50.742;6.432;2022-09-09T01:29:57;97992.22;;;14.28;100.00
50226;BME280;36113;50.742;6.432;2022-09-09T01:32:42;97992.59;;;14.34;100.00
50226;BME280;36113;50.742;6.432;2022-09-09T01:35:24;97987.47;;;14.33;100.00
50226;BME280;36113;50.742;6.432;2022-09-09T01:37:52;97988.19;;;14.35;100.00
50226;BME280;36113;50.742;6.432;2022-09-09T01:40:18;97991.50;;;14.37;100.00
50226;BME280;36113;50.742;6.432;2022-09-09T01:42:43;97997.44;;;14.39;100.00
50226;BME280;36113;50.742;6.432;2022-09-09T01:45:09;97966.38;;;14.24;100.00
50226;BME280;36113;50.742;6.432;2022-09-09T01:47:35;97969.34;;;14.31;100.00
50226;BME280;36113;50.742;6.432;2022-09-09T01:50:01;97979.03;;;14.40;100.00
50226;BME280;36113;50.742;6.432;2022-09-09T01:52:28;97982.41;;;14.42;100.00
50226;BME280;36113;50.742;6.432;2022-09-09T01:54:54;97994.94;;;14.49;100.00
50226;BME280;36113;50.742;6.432;2022-09-09T02:00:17;97957.72;;;14.35;100.00
50226;BME280;36113;50.742;6.432;2022-09-09T02:02:51;97969.81;;;14.48;100.00
50226;BME280;36113;50.742;6.432;2022-09-09T02:05:27;97992.47;;;14.58;100.00
50226;BME280;36113;50.742;6.432;2022-09-09T02:08:03;97986.75;;;14.65;100.00
50226;BME280;36113;50.742;6.432;2022-09-09T02:10:41;97968.38;;;14.55;100.00
50226;BME280;36113;50.742;6.432;2022-09-09T02:13:13;97981.44;;;14.55;100.00
50226;BME280;36113;50.742;6.432;2022-09-09T02:18:21;97988.31;;;14.67;100.00
50226;BME280;36113;50.742;6.432;2022-09-09T02:20:49;97987.22;;;14.70;100.00
50226;BME280;36113;50.742;6.432;2022-09-09T02:23:17;97983.69;;;14.71;100.00
50226;BME280;36113;50.742;6.432;2022-09-09T02:25:43;97984.38;;;14.73;100.00
50226;BME280;36113;50.742;6.432;2022-09-09T02:28:09;97979.16;;;14.73;100.00
50226;BME280;36113;50.742;6.432;2022-09-09T02:30:37;97921.09;;;14.37;100.00
50226;BME280;36113;50.742;6.432;2022-09-09T02:33:07;97955.09;;;14.58;100.00
50226;BME280;36113;50.742;6.432;2022-09-09T02:35:35;97970.88;;;14.68;100.00
50226;BME280;36113;50.742;6.432;2022-09-09T02:38:07;97974.06;;;14.71;100.00
50226;BME280;36113;50.742;6.432;2022-09-09T02:40:35;97977.13;;;14.76;100.00
50226;BME280;36113;50.742;6.432;2022-09-09T02:43:00;97964.34;;;14.73;100.00
50226;BME280;36113;50.742;6.432;2022-09-09T02:45:33;97970.63;;;14.71;100.00
50226;BME280;36113;50.742;6.432;2022-09-09T02:53:19;97945.00;;;14.65;100.00
50226;BME280;36113;50.742;6.432;2022-09-09T02:56:19;97971.69;;;14.79;100.00
50226;BME280;36113;50.742;6.432;2022-09-09T02:58:46;97971.91;;;14.76;100.00
50226;BME280;36113;50.742;6.432;2022-09-09T03:01:12;97969.06;;;14.79;100.00
50226;BME280;36113;50.742;6.432;2022-09-09T03:03:37;97941.94;;;14.48;100.00
50226;BME280;36113;50.742;6.432;2022-09-09T03:06:03;97949.88;;;14.47;100.00
50226;BME280;36113;50.742;6.432;2022-09-09T03:08:30;97959.97;;;14.51;100.00
50226;BME280;36113;50.742;6.432;2022-09-09T03:10:58;97954.75;;;14.51;100.00
50226;BME280;36113;50.742;6.432;2022-09-09T03:13:24;97964.59;;;14.59;100.00
50226;BME280;36113;50.742;6.432;2022-09-09T03:15:50;97955.56;;;14.52;100.00
50226;BME280;36113;50.742;6.432;2022-09-09T03:18:16;97950.47;;;14.50;100.00
50226;BME280;36113;50.742;6.432;2022-09-09T03:20:42;97962.34;;;14.66;100.00
50226;BME280;36113;50.742;6.432;2022-09-09T03:23:07;97953.44;;;14.68;100.00
50226;BME280;36113;50.742;6.432;2022-09-09T03:25:33;97965.66;;;14.68;100.00
50226;BME280;36113;50.742;6.432;2022-09-09T03:27:58;97937.19;;;14.53;100.00
50226;BME280;36113;50.742;6.432;2022-09-09T03:30:26;97949.75;;;14.59;100.00
50226;BME280;36113;50.742;6.432;2022-09-09T03:32:51;97969.22;;;14.67;100.00
50226;BME280;36113;50.742;6.432;2022-09-09T03:35:17;97968.50;;;14.65;100.00
50226;BME280;36113;50.742;6.432;2022-09-09T03:37:43;97966.50;;;14.68;100.00
50226;BME280;36113;50.742;6.432;2022-09-09T03:40:09;97948.34;;;14.55;100.00
50226;BME280;36113;50.742;6.432;2022-09-09T03:42:37;97974.69;;;14.63;100.00
50226;BME280;36113;50.742;6.432;2022-09-09T03:45:05;97954.63;;;14.53;100.00
50226;BME280;36113;50.742;6.432;2022-09-09T03:47:30;97953.09;;;14.50;100.00
50226;BME280;36113;50.742;6.432;2022-09-09T03:49:55;97954.41;;;14.44;100.00
50226;BME280;36113;50.742;6.432;2022-09-09T03:52:21;97981.44;;;14.55;100.00
50226;BME280;36113;50.742;6.432;2022-09-09T03:54:50;97965.31;;;14.61;100.00
50226;BME280;36113;50.742;6.432;2022-09-09T03:57:16;97941.59;;;14.53;100.00
50226;BME280;36113;50.742;6.432;2022-09-09T03:59:42;97955.94;;;14.58;100.00
50226;BME280;36113;50.742;6.432;2022-09-09T04:02:08;97949.53;;;14.62;100.00
50226;BME280;36113;50.742;6.432;2022-09-09T04:04:34;97962.69;;;14.61;100.00
50226;BME280;36113;50.742;6.432;2022-09-09T04:06:59;97968.25;;;14.68;100.00
50226;BME280;36113;50.742;6.432;2022-09-09T04:09:24;97960.66;;;14.65;100.00
50226;BME280;36113;50.742;6.432;2022-09-09T04:11:50;97967.19;;;14.70;100.00
50226;BME280;36113;50.742;6.432;2022-09-09T04:14:15;97973.47;;;14.68;100.00
50226;BME280;36113;50.742;6.432;2022-09-09T04:16:41;97957.69;;;14.69;100.00
50226;BME280;36113;50.742;6.432;2022-09-09T04:19:10;97939.91;;;14.52;100.00
50226;BME280;36113;50.742;6.432;2022-09-09T04:21:38;97958.44;;;14.60;100.00
50226;BME280;36113;50.742;6.432;2022-09-09T04:24:05;97939.91;;;14.52;100.00
50226;BME280;36113;50.742;6.432;2022-09-09T04:26:30;97962.69;;;14.72;100.00
50226;BME280;36113;50.742;6.432;2022-09-09T04:28:56;97935.28;;;14.55;100.00
50226;BME280;36113;50.742;6.432;2022-09-09T04:31:22;97961.41;;;14.67;100.00
50226;BME280;36113;50.742;6.432;2022-09-09T04:33:51;97963.66;;;14.60;100.00
50226;BME280;36113;50.742;6.432;2022-09-09T04:36:16;97966.28;;;14.60;100.00
50226;BME280;36113;50.742;6.432;2022-09-09T04:38:43;97956.63;;;14.49;100.00
50226;BME280;36113;50.742;6.432;2022-09-09T04:41:10;97955.84;;;14.60;100.00
50226;BME280;36113;50.742;6.432;2022-09-09T04:43:36;97959.97;;;14.51;100.00
50226;BME280;36113;50.742;6.432;2022-09-09T04:46:02;97963.28;;;14.53;100.00
50226;BME280;36113;50.742;6.432;2022-09-09T04:48:27;97963.53;;;14.61;100.00
50226;BME280;36113;50.742;6.432;2022-09-09T04:51:04;97922.75;;;14.38;100.00
50226;BME280;36113;50.742;6.432;2022-09-09T04:53:30;97964.69;;;14.57;100.00
50226;BME280;36113;50.742;6.432;2022-09-09T04:56:05;97942.75;;;14.49;100.00
50226;BME280;36113;50.742;6.432;2022-09-09T04:58:31;97925.47;;;14.36;100.00
50226;BME280;36113;50.742;6.432;2022-09-09T05:01:06;97964.22;;;14.52;100.00
50226;BME280;36113;50.742;6.432;2022-09-09T05:03:31;97972.50;;;14.57;100.00
50226;BME280;36113;50.742;6.432;2022-09-09T05:06:11;97958.31;;;14.50;100.00
50226;BME280;36113;50.742;6.432;2022-09-09T05:08:37;97975.75;;;14.61;100.00
50226;BME280;36113;50.742;6.432;2022-09-09T05:11:12;97957.25;;;14.53;100.00
50226;BME280;36113;50.742;6.432;2022-09-09T05:13:38;97970.41;;;14.62;100.00
50226;BME280;36113;50.742;6.432;2022-09-09T05:16:03;97960.19;;;14.59;100.00
50226;BME280;36113;50.742;6.432;2022-09-09T05:18:29;97973.81;;;14.74;100.00
50226;BME280;36113;50.742;6.432;2022-09-09T05:20:58;97983.56;;;14.84;100.00
50226;BME280;36113;50.742;6.432;2022-09-09T05:23:24;97970.03;;;14.78;100.00
50226;BME280;36113;50.742;6.432;2022-09-09T05:25:58;97932.56;;;14.45;100.00
50226;BME280;36113;50.742;6.432;2022-09-09T05:28:27;97954.97;;;14.59;100.00
50226;BME280;36113;50.742;6.432;2022-09-09T05:31:11;97951.53;;;14.70;100.00
50226;BME280;36113;50.742;6.432;2022-09-09T05:33:38;97970.03;;;14.78;100.00
50226;BME280;36113;50.742;6.432;2022-09-09T05:36:10;97977.34;;;14.85;100.00
50226;BME280;36113;50.742;6.432;2022-09-09T05:38:38;97962.06;;;14.80;100.00
50226;BME280;36113;50.742;6.432;2022-09-09T05:41:04;97968.84;;;14.82;100.00
50226;BME280;36113;50.742;6.432;2022-09-09T05:43:30;97966.81;;;14.75;100.00
50226;BME280;36113;50.742;6.432;2022-09-09T05:46:23;97961.59;;;14.75;100.00
50226;BME280;36113;50.742;6.432;2022-09-09T05:48:50;97955.69;;;14.73;100.00
50226;BME280;36113;50.742;6.432;2022-09-09T05:51:18;97965.63;;;14.79;100.00
50226;BME280;36113;50.742;6.432;2022-09-09T05:53:46;97972.78;;;14.77;100.00
50226;BME280;36113;50.742;6.432;2022-09-09T05:56:14;97975.97;;;14.80;100.00
50226;BME280;36113;50.742;6.432;2022-09-09T05:58:40;97972.03;;;14.86;100.00
50226;BME280;36113;50.742;6.432;2022-09-09T06:01:14;97954.00;;;14.83;100.00
50226;BME280;36113;50.742;6.432;2022-09-09T06:03:42;97977.69;;;15.03;100.00
50226;BME280;36113;50.742;6.432;2022-09-09T06:06:09;97956.47;;;14.96;100.00
50226;BME280;36113;50.742;6.432;2022-09-09T06:08:37;97960.31;;;15.13;100.00
50226;BME280;36113;50.742;6.432;2022-09-09T06:11:12;97956.50;;;15.17;100.00
50226;BME280;36113;50.742;6.432;2022-09-09T06:13:38;97959.25;;;15.36;100.00
50226;BME280;36113;50.742;6.432;2022-09-09T06:16:06;97931.94;;;15.41;100.00
50226;BME280;36113;50.742;6.432;2022-09-09T06:18:33;97967.59;;;15.84;100.00
50226;BME280;36113;50.742;6.432;2022-09-09T06:21:00;97961.75;;;16.01;100.00
50226;BME280;36113;50.742;6.432;2022-09-09T06:23:27;97944.06;;;16.15;100.00
50226;BME280;36113;50.742;6.432;2022-09-09T06:26:07;97934.13;;;16.08;100.00
50226;BME280;36113;50.742;6.432;2022-09-09T06:28:35;97946.13;;;16.11;100.00
50226;BME280;36113;50.742;6.432;2022-09-09T06:31:04;97951.16;;;16.03;100.00
50226;BME280;36113;50.742;6.432;2022-09-09T06:33:34;97954.03;;;16.00;100.00
50226;BME280;36113;50.742;6.432;2022-09-09T06:36:05;97934.78;;;15.80;100.00
50226;BME280;36113;50.742;6.432;2022-09-09T06:38:31;97947.88;;;15.80;100.00
50226;BME280;36113;50.742;6.432;2022-09-09T06:40:59;97940.44;;;15.75;100.00
50226;BME280;36113;50.742;6.432;2022-09-09T06:43:25;97949.72;;;15.89;100.00
50226;BME280;36113;50.742;6.432;2022-09-09T06:45:55;97957.22;;;16.03;100.00
50226;BME280;36113;50.742;6.432;2022-09-09T06:48:20;97954.78;;;16.11;100.00
50226;BME280;36113;50.742;6.432;2022-09-09T06:50:46;97953.72;;;16.24;100.00
50226;BME280;36113;50.742;6.432;2022-09-09T06:53:11;97959.19;;;16.42;100.00
50226;BME280;36113;50.742;6.432;2022-09-09T06:55:37;97959.44;;;16.48;99.72
50226;BME280;36113;50.742;6.432;2022-09-09T06:58:02;97957.56;;;16.60;100.00
50226;BME280;36113;50.742;6.432;2022-09-09T07:00:27;97904.06;;;16.43;100.00
50226;BME280;36113;50.742;6.432;2022-09-09T07:02:53;97958.88;;;16.85;99.38
50226;BME280;36113;50.742;6.432;2022-09-09T07:05:18;97957.09;;;16.96;97.80
50226;BME280;36113;50.742;6.432;2022-09-09T07:07:44;97949.13;;;16.97;97.26
50226;BME280;36113;50.742;6.432;2022-09-09T07:10:09;97960.84;;;17.03;96.51
50226;BME280;36113;50.742;6.432;2022-09-09T07:12:35;97958.63;;;17.18;97.61
50226;BME280;36113;50.742;6.432;2022-09-09T07:15:00;97955.59;;;17.32;96.67
50226;BME280;36113;50.742;6.432;2022-09-09T07:17:26;97959.84;;;17.43;94.43
50226;BME280;36113;50.742;6.432;2022-09-09T07:19:53;97964.41;;;17.41;94.10
50226;BME280;36113;50.742;6.432;2022-09-09T07:22:18;97951.59;;;17.28;94.25
50226;BME280;36113;50.742;6.432;2022-09-09T07:24:44;97970.22;;;17.35;93.81
50226;BME280;36113;50.742;6.432;2022-09-09T07:27:10;97942.78;;;17.19;93.16
50226;BME280;36113;50.742;6.432;2022-09-09T07:29:35;97970.63;;;17.50;93.02
50226;BME280;36113;50.742;6.432;2022-09-09T07:32:00;97973.78;;;17.63;91.02
50226;BME280;36113;50.742;6.432;2022-09-09T07:34:27;97975.84;;;17.50;90.88
50226;BME280;36113;50.742;6.432;2022-09-09T07:36:52;97979.47;;;17.49;91.19
50226;BME280;36113;50.742;6.432;2022-09-09T07:39:18;97970.75;;;17.58;91.17
50226;BME280;36113;50.742;6.432;2022-09-09T07:41:46;97979.28;;;17.70;90.24
50226;BME280;36113;50.742;6.432;2022-09-09T07:44:17;97954.75;;;17.51;89.46
50226;BME280;36113;50.742;6.432;2022-09-09T07:46:43;97982.47;;;17.63;90.83
50226;BME280;36113;50.742;6.432;2022-09-09T07:49:10;97978.47;;;17.59;90.23
50226;BME280;36113;50.742;6.432;2022-09-09T07:51:38;97990.72;;;17.69;89.94
50226;BME280;36113;50.742;6.432;2022-09-09T07:54:06;97970.44;;;17.90;89.25
50226;BME280;36113;50.742;6.432;2022-09-09T07:56:34;97977.84;;;18.05;85.34
50226;BME280;36113;50.742;6.432;2022-09-09T07:59:00;97980.72;;;18.11;83.76
50226;BME280;36113;50.742;6.432;2022-09-09T08:01:29;97956.03;;;18.14;83.48
50226;BME280;36113;50.742;6.432;2022-09-09T08:04:02;97994.09;;;18.28;80.79
50226;BME280;36113;50.742;6.432;2022-09-09T08:06:36;97985.84;;;18.13;82.39
50226;BME280;36113;50.742;6.432;2022-09-09T08:09:03;97987.38;;;18.15;82.34
50226;BME280;36113;50.742;6.432;2022-09-09T08:11:29;97952.59;;;18.04;81.53
50226;BME280;36113;50.742;6.432;2022-09-09T08:13:54;97987.97;;;18.37;80.86
50226;BME280;36113;50.742;6.432;2022-09-09T08:16:25;97986.53;;;18.43;80.75
50226;BME280;36113;50.742;6.432;2022-09-09T08:18:52;97991.38;;;18.47;82.11
50226;BME280;36113;50.742;6.432;2022-09-09T08:21:21;97993.50;;;18.62;81.42
50226;BME280;36113;50.742;6.432;2022-09-09T08:23:47;97984.56;;;18.82;81.76
50226;BME280;36113;50.742;6.432;2022-09-09T08:26:15;97975.06;;;18.99;79.55
50226;BME280;36113;50.742;6.432;2022-09-09T08:28:42;97961.63;;;19.02;76.75
50226;BME280;36113;50.742;6.432;2022-09-09T08:31:09;97987.56;;;19.15;77.41
50226;BME280;36113;50.742;6.432;2022-09-09T08:33:34;97978.94;;;19.05;77.83
50226;BME280;36113;50.742;6.432;2022-09-09T08:36:02;97980.56;;;18.88;77.73
50226;BME280;36113;50.742;6.432;2022-09-09T08:38:28;97999.47;;;18.91;78.93
50226;BME280;36113;50.742;6.432;2022-09-09T08:43:37;97987.16;;;18.64;79.16
50226;BME280;36113;50.742;6.432;2022-09-09T08:46:11;98011.75;;;18.63;79.52
50226;BME280;36113;50.742;6.432;2022-09-09T08:48:47;97978.84;;;18.41;80.47
50226;BME280;36113;50.742;6.432;2022-09-09T08:51:18;98006.84;;;18.50;80.88
50226;BME280;36113;50.742;6.432;2022-09-09T08:53:47;98008.28;;;18.63;81.35
50226;BME280;36113;50.742;6.432;2022-09-09T08:56:16;98007.97;;;18.76;81.47
50226;BME280;36113;50.742;6.432;2022-09-09T08:58:49;98020.88;;;18.97;81.21
50226;BME280;36113;50.742;6.432;2022-09-09T09:07:20;97970.34;;;18.20;81.23
50226;BME280;36113;50.742;6.432;2022-09-09T09:12:58;97999.59;;;18.34;82.67
50226;BME280;36113;50.742;6.432;2022-09-09T09:15:30;98025.59;;;18.55;82.59
50226;BME280;36113;50.742;6.432;2022-09-09T09:17:56;97998.47;;;18.37;83.93
50226;BME280;36113;50.742;6.432;2022-09-09T09:20:36;97988.50;;;18.41;83.59
50226;BME280;36113;50.742;6.432;2022-09-09T09:23:12;98019.03;;;18.69;83.78
50226;BME280;36113;50.742;6.432;2022-09-09T09:25:42;98022.59;;;18.88;83.58
50226;BME280;36113;50.742;6.432;2022-09-09T09:28:21;98011.66;;;19.10;83.19
50226;BME280;36113;50.742;6.432;2022-09-09T09:30:59;98026.03;;;19.34;80.90
50226;BME280;36113;50.742;6.432;2022-09-09T09:36:44;98028.47;;;19.54;79.28
50226;BME280;36113;50.742;6.432;2022-09-09T09:39:31;98032.31;;;19.59;80.04
50226;BME280;36113;50.742;6.432;2022-09-09T09:42:12;98035.00;;;19.32;79.29
50226;BME280;36113;50.742;6.432;2022-09-09T09:44:40;98022.84;;;19.30;79.80
50226;BME280;36113;50.742;6.432;2022-09-09T09:47:17;98026.75;;;19.26;78.53
50226;BME280;36113;50.742;6.432;2022-09-09T09:52:21;98035.84;;;18.86;80.41
50226;BME280;36113;50.742;6.432;2022-09-09T09:54:49;98030.38;;;18.70;82.70
50226;BME280;36113;50.742;6.432;2022-09-09T09:57:16;98034.16;;;18.95;82.92
50226;BME280;36113;50.742;6.432;2022-09-09T09:59:42;98015.72;;;19.05;83.12
50226;BME280;36113;50.742;6.432;2022-09-09T10:02:20;98037.09;;;19.46;82.62
50226;BME280;36113;50.742;6.432;2022-09-09T10:04:46;98007.22;;;19.65;80.50
50226;BME280;36113;50.742;6.432;2022-09-09T10:07:21;98028.69;;;19.96;78.71
50226;BME280;36113;50.742;6.432;2022-09-09T10:09:55;98042.31;;;20.18;77.46
50226;BME280;36113;50.742;6.432;2022-09-09T10:12:27;98037.31;;;20.33;75.07
50226;BME280;36113;50.742;6.432;2022-09-09T10:17:50;98030.59;;;20.12;73.07
50226;BME280;36113;50.742;6.432;2022-09-09T10:22:51;98032.50;;;20.02;71.18
50226;BME280;36113;50.742;6.432;2022-09-09T10:25:25;98034.16;;;20.29;72.25
50226;BME280;36113;50.742;6.432;2022-09-09T10:30:45;98032.09;;;20.75;68.64
50226;BME280;36113;50.742;6.432;2022-09-09T10:33:28;98039.47;;;20.64;69.83
50226;BME280;36113;50.742;6.432;2022-09-09T10:36:06;98021.84;;;20.38;69.67
50226;BME280;36113;50.742;6.432;2022-09-09T10:38:46;98014.34;;;20.17;72.13
50226;BME280;36113;50.742;6.432;2022-09-09T10:41:19;98038.78;;;20.09;67.44
50226;BME280;36113;50.742;6.432;2022-09-09T10:44:02;98025.56;;;19.75;69.10
50226;BME280;36113;50.742;6.432;2022-09-09T10:52:36;98028.16;;;19.93;71.96
50226;BME280;36113;50.742;6.432;2022-09-09T10:55:18;98008.75;;;20.20;71.66
50226;BME280;36113;50.742;6.432;2022-09-09T10:57:51;98029.75;;;20.64;70.70
50226;BME280;36113;50.742;6.432;2022-09-09T11:00:25;98029.03;;;20.96;68.51
50226;BME280;36113;50.742;6.432;2022-09-09T11:03:19;98025.50;;;20.71;65.32
50226;BME280;36113;50.742;6.432;2022-09-09T11:05:49;98018.97;;;20.57;67.51
50226;BME280;36113;50.742;6.432;2022-09-09T11:08:25;98034.44;;;20.78;66.07
50226;BME280;36113;50.742;6.432;2022-09-09T11:11:03;97993.09;;;20.79;66.60
50226;BME280;36113;50.742;6.432;2022-09-09T11:16:23;97991.81;;;20.91;66.32
50226;BME280;36113;50.742;6.432;2022-09-09T11:18:52;98030.78;;;21.30;63.19
50226;BME280;36113;50.742;6.432;2022-09-09T11:21:25;98021.09;;;21.47;62.67
50226;BME280;36113;50.742;6.432;2022-09-09T11:23:56;97998.75;;;21.09;61.12
50226;BME280;36113;50.742;6.432;2022-09-09T11:26:31;98013.38;;;20.95;63.98
50226;BME280;36113;50.742;6.432;2022-09-09T11:42:31;97997.78;;;21.10;61.86
50226;BME280;36113;50.742;6.432;2022-09-09T11:44:56;98015.72;;;21.14;61.37
50226;BME280;36113;50.742;6.432;2022-09-09T11:47:30;98002.72;;;21.05;62.46
50226;BME280;36113;50.742;6.432;2022-09-09T11:50:09;97999.25;;;21.12;63.81
50226;BME280;36113;50.742;6.432;2022-09-09T11:55:27;98032.16;;;20.84;64.70
50226;BME280;36113;50.742;6.432;2022-09-09T11:58:15;98026.03;;;20.49;67.45
50226;BME280;36113;50.742;6.432;2022-09-09T12:03:41;98037.25;;;20.59;68.99
50226;BME280;36113;50.742;6.432;2022-09-09T12:06:15;98028.78;;;20.65;70.24
50226;BME280;36113;50.742;6.432;2022-09-09T12:08:45;97984.19;;;20.46;69.55
50226;BME280;36113;50.742;6.432;2022-09-09T12:11:11;98011.19;;;20.74;67.60
50226;BME280;36113;50.742;6.432;2022-09-09T12:13:37;98026.34;;;20.80;67.61
50226;BME280;36113;50.742;6.432;2022-09-09T12:16:03;98033.00;;;21.01;68.30
50226;BME280;36113;50.742;6.432;2022-09-09T12:24:02;98009.06;;;20.77;69.34
50226;BME280;36113;50.742;6.432;2022-09-09T12:26:40;98005.41;;;20.70;70.19
50226;BME280;36113;50.742;6.432;2022-09-09T12:35:20;98027.69;;;20.50;72.66
50226;BME280;36113;50.742;6.432;2022-09-09T12:37:41;98025.19;;;20.48;71.04
50226;BME280;36113;50.742;6.432;2022-09-09T12:42:44;98021.25;;;20.44;73.08
50226;BME280;36113;50.742;6.432;2022-09-09T12:45:17;97992.72;;;20.05;72.84
50226;BME280;36113;50.742;6.432;2022-09-09T12:48:05;98006.69;;;20.05;73.61
50226;BME280;36113;50.742;6.432;2022-09-09T12:50:36;98024.97;;;20.07;75.76
50226;BME280;36113;50.742;6.432;2022-09-09T12:53:30;98011.88;;;20.50;73.25
50226;BME280;36113;50.742;6.432;2022-09-09T12:56:04;98025.09;;;20.92;72.25
50226;BME280;36113;50.742;6.432;2022-09-09T12:58:32;98000.59;;;21.16;70.87
50226;BME280;36113;50.742;6.432;2022-09-09T13:00:58;98008.19;;;21.36;69.51
50226;BME280;36113;50.742;6.432;2022-09-09T13:03:25;98010.19;;;21.50;68.39
50226;BME280;36113;50.742;6.432;2022-09-09T13:05:51;98007.69;;;21.32;69.37
50226;BME280;36113;50.742;6.432;2022-09-09T13:08:18;98002.53;;;21.14;71.25
50226;BME280;36113;50.742;6.432;2022-09-09T13:10:58;97993.44;;;20.84;70.95
50226;BME280;36113;50.742;6.432;2022-09-09T13:13:31;97999.63;;;20.67;72.35
50226;BME280;36113;50.742;6.432;2022-09-09T13:16:00;97996.84;;;20.42;72.77
50226;BME280;36113;50.742;6.432;2022-09-09T13:18:29;97993.59;;;20.14;73.46
50226;BME280;36113;50.742;6.432;2022-09-09T13:20:55;97996.22;;;19.88;75.65
50226;BME280;36113;50.742;6.432;2022-09-09T13:23:32;97988.34;;;19.70;77.30
50226;BME280;36113;50.742;6.432;2022-09-09T13:28:30;97983.97;;;19.96;77.41
50226;BME280;36113;50.742;6.432;2022-09-09T13:31:03;97984.94;;;19.95;75.49
50226;BME280;36113;50.742;6.432;2022-09-09T13:33:37;97994.66;;;19.77;81.07
50226;BME280;36113;50.742;6.432;2022-09-09T13:38:30;98022.44;;;19.07;97.92
50226;BME280;36113;50.742;6.432;2022-09-09T13:40:58;98017.44;;;18.59;100.00
50226;BME280;36113;50.742;6.432;2022-09-09T13:43:26;98022.56;;;18.13;100.00
50226;BME280;36113;50.742;6.432;2022-09-09T13:45:57;98001.78;;;17.53;100.00
50226;BME280;36113;50.742;6.432;2022-09-09T13:48:23;98036.28;;;17.29;100.00
50226;BME280;36113;50.742;6.432;2022-09-09T13:51:03;98030.88;;;17.11;100.00
50226;BME280;36113;50.742;6.432;2022-09-09T13:53:32;98023.25;;;16.98;100.00
50226;BME280;36113;50.742;6.432;2022-09-09T13:55:58;98026.56;;;17.00;100.00
50226;BME280;36113;50.742;6.432;2022-09-09T13:58:25;98012.81;;;17.17;100.00
50226;BME280;36113;50.742;6.432;2022-09-09T14:00:51;98016.97;;;17.30;100.00
50226;BME280;36113;50.742;6.432;2022-09-09T14:03:17;98014.34;;;17.39;100.00
50226;BME280;36113;50.742;6.432;2022-09-09T14:05:44;98009.53;;;17.35;100.00
50226;BME280;36113;50.742;6.432;2022-09-09T14:08:15;97996.81;;;17.20;100.00
50226;BME280;36113;50.742;6.432;2022-09-09T14:10:41;98014.63;;;17.46;100.00
50226;BME280;36113;50.742;6.432;2022-09-09T14:13:06;98005.66;;;17.68;100.00
50226;BME280;36113;50.742;6.432;2022-09-09T14:15:33;98005.66;;;17.78;100.00
50226;BME280;36113;50.742;6.432;2022-09-09T14:17:58;97999.44;;;17.89;100.00
50226;BME280;36113;50.742;6.432;2022-09-09T14:20:24;98000.38;;;18.07;100.00
50226;BME280;36113;50.742;6.432;2022-09-09T14:22:49;97981.31;;;18.05;100.00
50226;BME280;36113;50.742;6.432;2022-09-09T14:25:14;98008.50;;;18.04;100.00
50226;BME280;36113;50.742;6.432;2022-09-09T14:27:40;98011.44;;;17.81;100.00
50226;BME280;36113;50.742;6.432;2022-09-09T14:30:06;98007.72;;;17.55;100.00
50226;BME280;36113;50.742;6.432;2022-09-09T14:32:32;98022.91;;;17.51;100.00
50226;BME280;36113;50.742;6.432;2022-09-09T14:34:58;98030.38;;;17.66;100.00
50226;BME280;36113;50.742;6.432;2022-09-09T14:37:23;98033.53;;;17.59;100.00
50226;BME280;36113;50.742;6.432;2022-09-09T14:39:49;98043.75;;;17.62;100.00
50226;BME280;36113;50.742;6.432;2022-09-09T14:42:15;98028.00;;;17.53;100.00
50226;BME280;36113;50.742;6.432;2022-09-09T14:44:41;98033.81;;;17.66;100.00
50226;BME280;36113;50.742;6.432;2022-09-09T14:47:07;98037.38;;;17.46;100.00
50226;BME280;36113;50.742;6.432;2022-09-09T14:49:34;98032.41;;;17.42;100.00